sensor_id;sensor_type;location;lat;lon;timestamp;temperature;humidity
19813;DHT22;10066;48.108;11.448;2023-06-01T00:00:55;14.80;95.10
19813;DHT22;10066;48.108;11.448;2023-06-01T00:03:23;14.70;95.30
19813;DHT22;10066;48.108;11.448;2023-06-01T00:05:50;14.70;95.60
19813;DHT22;10066;48.108;11.448;2023-06-01T00:08:17;14.70;95.80
19813;DHT22;10066;48.108;11.448;2023-06-01T00:10:44;14.60;95.90
19813;DHT22;10066;48.108;11.448;2023-06-01T00:13:11;14.60;96.20
19813;DHT22;10066;48.108;11.448;2023-06-01T00:15:38;14.60;96.40
19813;DHT22;10066;48.108;11.448;2023-06-01T00:18:05;14.50;96.30
19813;DHT22;10066;48.108;11.448;2023-06-01T00:20:35;14.50;96.40
19813;DHT22;10066;48.108;11.448;2023-06-01T00:23:04;14.50;96.50
19813;DHT22;10066;48.108;11.448;2023-06-01T00:25:32;14.40;96.90
19813;DHT22;10066;48.108;11.448;2023-06-01T00:27:58;14.40;97.20
19813;DHT22;10066;48.108;11.448;2023-06-01T00:30:27;14.30;97.20
19813;DHT22;10066;48.108;11.448;2023-06-01T00:32:54;14.30;97.60
19813;DHT22;10066;48.108;11.448;2023-06-01T00:35:21;14.30;97.60
19813;DHT22;10066;48.108;11.448;2023-06-01T00:37:49;14.30;97.70
19813;DHT22;10066;48.108;11.448;2023-06-01T00:40:16;14.20;97.80
19813;DHT22;10066;48.108;11.448;2023-06-01T00:42:43;14.20;97.90
19813;DHT22;10066;48.108;11.448;2023-06-01T00:45:10;14.10;98.20
19813;DHT22;10066;48.108;11.448;2023-06-01T00:47:40;14.10;98.50
19813;DHT22;10066;48.108;11.448;2023-06-01T00:50:08;14.00;98.90
19813;DHT22;10066;48.108;11.448;2023-06-01T00:52:37;14.00;99.40
19813;DHT22;10066;48.108;11.448;2023-06-01T00:55:06;14.00;99.00
19813;DHT22;10066;48.108;11.448;2023-06-01T00:57:33;14.00;99.10
19813;DHT22;10066;48.108;11.448;2023-06-01T01:00:01;13.90;99.30
19813;DHT22;10066;48.108;11.448;2023-06-01T01:02:35;13.90;99.50
19813;DHT22;10066;48.108;11.448;2023-06-01T01:05:03;13.80;99.80
19813;DHT22;10066;48.108;11.448;2023-06-01T01:07:42;13.80;99.90
19813;DHT22;10066;48.108;11.448;2023-06-01T01:10:22;13.80;99.90
19813;DHT22;10066;48.108;11.448;2023-06-01T01:12:55;13.70;99.90
19813;DHT22;10066;48.108;11.448;2023-06-01T01:15:28;13.60;99.90
19813;DHT22;10066;48.108;11.448;2023-06-01T01:18:02;13.70;99.90
19813;DHT22;10066;48.108;11.448;2023-06-01T01:20:37;13.70;99.90
19813;DHT22;10066;48.108;11.448;2023-06-01T01:23:19;13.60;99.90
19813;DHT22;10066;48.108;11.448;2023-06-01T01:26:12;13.60;99.90
19813;DHT22;10066;48.108;11.448;2023-06-01T01:28:45;13.50;99.90
19813;DHT22;10066;48.108;11.448;2023-06-01T01:31:16;13.50;99.90
19813;DHT22;10066;48.108;11.448;2023-06-01T01:36:12;13.40;99.90
19813;DHT22;10066;48.108;11.448;2023-06-01T01:38:39;13.40;99.90
19813;DHT22;10066;48.108;11.448;2023-06-01T01:41:06;13.30;99.90
19813;DHT22;10066;48.108;11.448;2023-06-01T01:43:33;13.30;99.90
19813;DHT22;10066;48.108;11.448;2023-06-01T01:46:07;13.30;99.90
19813;DHT22;10066;48.108;11.448;2023-06-01T01:48:37;13.30;99.90
19813;DHT22;10066;48.108;11.448;2023-06-01T01:51:10;13.30;99.90
19813;DHT22;10066;48.108;11.448;2023-06-01T01:53:39;13.30;99.90
19813;DHT22;10066;48.108;11.448;2023-06-01T01:56:07;13.20;99.90
19813;DHT22;10066;48.108;11.448;2023-06-01T01:58:35;13.20;99.90
19813;DHT22;10066;48.108;11.448;2023-06-01T02:01:04;13.10;99.90
19813;DHT22;10066;48.108;11.448;2023-06-01T02:03:32;13.10;99.90
19813;DHT22;10066;48.108;11.448;2023-06-01T02:05:59;13.00;99.90
19813;DHT22;10066;48.108;11.448;2023-06-01T02:08:25;13.00;99.90
19813;DHT22;10066;48.108;11.448;2023-06-01T02:10:52;12.90;99.90
19813;DHT22;10066;48.108;11.448;2023-06-01T02:13:19;12.90;99.90
19813;DHT22;10066;48.108;11.448;2023-06-01T02:15:46;12.90;99.90
19813;DHT22;10066;48.108;11.448;2023-06-01T02:18:14;12.80;99.90
19813;DHT22;10066;48.108;11.448;2023-06-01T02:20:43;12.80;99.90
19813;DHT22;10066;48.108;11.448;2023-06-01T02:23:10;12.70;99.90
19813;DHT22;10066;48.108;11.448;2023-06-01T02:25:37;12.70;99.90
19813;DHT22;10066;48.108;11.448;2023-06-01T02:28:04;12.70;99.90
19813;DHT22;10066;48.108;11.448;2023-06-01T02:30:32;12.60;99.90
19813;DHT22;10066;48.108;11.448;2023-06-01T02:32:59;12.50;99.90
19813;DHT22;10066;48.108;11.448;2023-06-01T02:35:28;12.50;99.90
19813;DHT22;10066;48.108;11.448;2023-06-01T02:37:55;12.50;99.90
19813;DHT22;10066;48.108;11.448;2023-06-01T02:40:22;12.50;99.90
19813;DHT22;10066;48.108;11.448;2023-06-01T02:42:49;12.40;99.90
19813;DHT22;10066;48.108;11.448;2023-06-01T02:45:16;12.40;99.90
19813;DHT22;10066;48.108;11.448;2023-06-01T02:47:43;12.40;99.90
19813;DHT22;10066;48.108;11.448;2023-06-01T02:50:11;12.40;99.90
19813;DHT22;10066;48.108;11.448;2023-06-01T02:52:39;12.40;99.90
19813;DHT22;10066;48.108;11.448;2023-06-01T02:55:07;12.30;99.90
19813;DHT22;10066;48.108;11.448;2023-06-01T02:57:34;12.30;99.90
19813;DHT22;10066;48.108;11.448;2023-06-01T03:00:01;12.30;99.90
19813;DHT22;10066;48.108;11.448;2023-06-01T03:02:30;12.30;99.90
19813;DHT22;10066;48.108;11.448;2023-06-01T03:04:57;12.30;99.90
19813;DHT22;10066;48.108;11.448;2023-06-01T03:07:23;12.20;99.90
19813;DHT22;10066;48.108;11.448;2023-06-01T03:09:52;12.30;99.90
19813;DHT22;10066;48.108;11.448;2023-06-01T03:12:19;12.20;99.90
19813;DHT22;10066;48.108;11.448;2023-06-01T03:14:45;12.20;99.90
19813;DHT22;10066;48.108;11.448;2023-06-01T03:17:12;12.20;99.90
19813;DHT22;10066;48.108;11.448;2023-06-01T03:19:39;12.10;99.90
19813;DHT22;10066;48.108;11.448;2023-06-01T03:22:06;12.20;99.90
19813;DHT22;10066;48.108;11.448;2023-06-01T03:24:33;12.10;99.90
19813;DHT22;10066;48.108;11.448;2023-06-01T03:27:04;12.10;99.90
19813;DHT22;10066;48.108;11.448;2023-06-01T03:29:31;12.10;99.90
19813;DHT22;10066;48.108;11.448;2023-06-01T03:31:57;12.10;99.90
19813;DHT22;10066;48.108;11.448;2023-06-01T03:34:24;12.10;99.90
19813;DHT22;10066;48.108;11.448;2023-06-01T03:36:52;12.10;99.90
19813;DHT22;10066;48.108;11.448;2023-06-01T03:39:19;12.10;99.90
19813;DHT22;10066;48.108;11.448;2023-06-01T03:41:46;12.10;99.90
19813;DHT22;10066;48.108;11.448;2023-06-01T03:44:14;12.10;99.90
19813;DHT22;10066;48.108;11.448;2023-06-01T03:46:41;12.10;99.90
19813;DHT22;10066;48.108;11.448;2023-06-01T03:49:08;12.10;99.90
19813;DHT22;10066;48.108;11.448;2023-06-01T03:51:35;12.10;99.90
19813;DHT22;10066;48.108;11.448;2023-06-01T03:54:02;12.10;99.90
19813;DHT22;10066;48.108;11.448;2023-06-01T03:56:29;12.20;99.90
19813;DHT22;10066;48.108;11.448;2023-06-01T03:58:56;12.20;99.90
19813;DHT22;10066;48.108;11.448;2023-06-01T04:01:24;12.20;99.90
19813;DHT22;10066;48.108;11.448;2023-06-01T04:03:54;12.30;99.90
19813;DHT22;10066;48.108;11.448;2023-06-01T04:06:22;12.30;99.90
19813;DHT22;10066;48.108;11.448;2023-06-01T04:08:49;12.40;99.90
19813;DHT22;10066;48.108;11.448;2023-06-01T04:11:21;13.00;99.90
19813;DHT22;10066;48.108;11.448;2023-06-01T04:13:48;13.70;99.90
19813;DHT22;10066;48.108;11.448;2023-06-01T04:16:15;14.40;99.90
19813;DHT22;10066;48.108;11.448;2023-06-01T04:18:43;15.00;99.90
19813;DHT22;10066;48.108;11.448;2023-06-01T04:21:11;15.40;99.90
19813;DHT22;10066;48.108;11.448;2023-06-01T04:23:38;15.60;99.90
19813;DHT22;10066;48.108;11.448;2023-06-01T04:26:05;15.70;99.90
19813;DHT22;10066;48.108;11.448;2023-06-01T04:28:32;15.90;99.90
19813;DHT22;10066;48.108;11.448;2023-06-01T04:30:59;16.00;99.90
19813;DHT22;10066;48.108;11.448;2023-06-01T04:33:27;16.00;99.90
19813;DHT22;10066;48.108;11.448;2023-06-01T04:35:56;15.80;99.90
19813;DHT22;10066;48.108;11.448;2023-06-01T04:38:23;15.60;99.90
19813;DHT22;10066;48.108;11.448;2023-06-01T04:40:50;15.90;99.90
19813;DHT22;10066;48.108;11.448;2023-06-01T04:43:19;16.60;99.90
19813;DHT22;10066;48.108;11.448;2023-06-01T04:45:46;17.10;99.90
19813;DHT22;10066;48.108;11.448;2023-06-01T04:48:13;17.80;99.90
19813;DHT22;10066;48.108;11.448;2023-06-01T04:50:42;18.60;99.90
19813;DHT22;10066;48.108;11.448;2023-06-01T04:53:11;19.30;99.90
19813;DHT22;10066;48.108;11.448;2023-06-01T04:58:05;20.70;98.40
19813;DHT22;10066;48.108;11.448;2023-06-01T05:03:02;20.50;97.20
19813;DHT22;10066;48.108;11.448;2023-06-01T05:05:29;20.10;97.60
19813;DHT22;10066;48.108;11.448;2023-06-01T05:07:56;19.70;97.60
19813;DHT22;10066;48.108;11.448;2023-06-01T05:10:24;19.30;97.70
19813;DHT22;10066;48.108;11.448;2023-06-01T05:12:51;19.00;97.80
19813;DHT22;10066;48.108;11.448;2023-06-01T05:15:18;18.70;97.60
19813;DHT22;10066;48.108;11.448;2023-06-01T05:17:45;18.80;97.50
19813;DHT22;10066;48.108;11.448;2023-06-01T05:20:13;18.60;97.60
19813;DHT22;10066;48.108;11.448;2023-06-01T05:22:45;18.30;97.60
19813;DHT22;10066;48.108;11.448;2023-06-01T05:25:12;18.20;98.00
19813;DHT22;10066;48.108;11.448;2023-06-01T05:27:41;17.90;97.80
19813;DHT22;10066;48.108;11.448;2023-06-01T05:30:09;17.60;97.70
19813;DHT22;10066;48.108;11.448;2023-06-01T05:32:36;17.30;98.10
19813;DHT22;10066;48.108;11.448;2023-06-01T05:35:03;17.10;98.50
19813;DHT22;10066;48.108;11.448;2023-06-01T05:37:30;17.00;98.70
19813;DHT22;10066;48.108;11.448;2023-06-01T05:39:57;17.00;99.00
19813;DHT22;10066;48.108;11.448;2023-06-01T05:42:24;16.90;99.00
19813;DHT22;10066;48.108;11.448;2023-06-01T05:44:52;16.80;99.20
19813;DHT22;10066;48.108;11.448;2023-06-01T05:47:19;16.90;99.60
19813;DHT22;10066;48.108;11.448;2023-06-01T05:49:46;16.90;99.60
19813;DHT22;10066;48.108;11.448;2023-06-01T05:52:13;16.90;99.60
19813;DHT22;10066;48.108;11.448;2023-06-01T05:54:40;16.90;99.60
19813;DHT22;10066;48.108;11.448;2023-06-01T05:57:07;16.80;99.50
19813;DHT22;10066;48.108;11.448;2023-06-01T05:59:34;16.80;99.50
19813;DHT22;10066;48.108;11.448;2023-06-01T06:02:03;16.80;99.70
19813;DHT22;10066;48.108;11.448;2023-06-01T06:04:30;16.80;99.60
19813;DHT22;10066;48.108;11.448;2023-06-01T06:06:57;16.80;99.50
19813;DHT22;10066;48.108;11.448;2023-06-01T06:09:23;16.80;99.60
19813;DHT22;10066;48.108;11.448;2023-06-01T06:11:51;16.80;99.80
19813;DHT22;10066;48.108;11.448;2023-06-01T06:14:18;16.80;99.40
19813;DHT22;10066;48.108;11.448;2023-06-01T06:16:45;16.80;99.60
19813;DHT22;10066;48.108;11.448;2023-06-01T06:19:13;17.30;99.20
19813;DHT22;10066;48.108;11.448;2023-06-01T06:21:42;18.80;97.60
19813;DHT22;10066;48.108;11.448;2023-06-01T06:24:09;20.10;96.50
19813;DHT22;10066;48.108;11.448;2023-06-01T06:26:36;21.30;95.40
19813;DHT22;10066;48.108;11.448;2023-06-01T06:29:02;22.30;93.30
19813;DHT22;10066;48.108;11.448;2023-06-01T06:31:29;23.10;92.00
19813;DHT22;10066;48.108;11.448;2023-06-01T06:33:56;23.90;90.90
19813;DHT22;10066;48.108;11.448;2023-06-01T06:36:24;24.30;88.80
19813;DHT22;10066;48.108;11.448;2023-06-01T06:41:18;25.40;83.00
19813;DHT22;10066;48.108;11.448;2023-06-01T06:43:46;25.70;82.50
19813;DHT22;10066;48.108;11.448;2023-06-01T06:46:13;26.00;82.00
19813;DHT22;10066;48.108;11.448;2023-06-01T06:48:40;26.40;80.10
19813;DHT22;10066;48.108;11.448;2023-06-01T06:51:07;26.70;78.40
19813;DHT22;10066;48.108;11.448;2023-06-01T06:53:35;26.70;76.30
19813;DHT22;10066;48.108;11.448;2023-06-01T06:56:02;26.80;75.90
19813;DHT22;10066;48.108;11.448;2023-06-01T06:58:29;27.00;75.80
19813;DHT22;10066;48.108;11.448;2023-06-01T07:00:56;27.00;74.30
19813;DHT22;10066;48.108;11.448;2023-06-01T07:03:22;26.50;73.10
19813;DHT22;10066;48.108;11.448;2023-06-01T07:05:49;25.70;74.40
19813;DHT22;10066;48.108;11.448;2023-06-01T07:08:16;24.80;76.80
19813;DHT22;10066;48.108;11.448;2023-06-01T07:10:44;23.70;78.40
19813;DHT22;10066;48.108;11.448;2023-06-01T07:13:11;23.00;80.80
19813;DHT22;10066;48.108;11.448;2023-06-01T07:15:39;22.40;82.70
19813;DHT22;10066;48.108;11.448;2023-06-01T07:18:06;21.90;83.30
19813;DHT22;10066;48.108;11.448;2023-06-01T07:20:33;21.30;84.40
19813;DHT22;10066;48.108;11.448;2023-06-01T07:23:00;21.00;85.80
19813;DHT22;10066;48.108;11.448;2023-06-01T07:25:27;20.70;87.30
19813;DHT22;10066;48.108;11.448;2023-06-01T07:27:55;20.40;88.30
19813;DHT22;10066;48.108;11.448;2023-06-01T07:30:23;20.20;88.80
19813;DHT22;10066;48.108;11.448;2023-06-01T07:32:50;20.10;89.70
19813;DHT22;10066;48.108;11.448;2023-06-01T07:35:17;20.10;90.70
19813;DHT22;10066;48.108;11.448;2023-06-01T07:37:44;20.10;90.90
19813;DHT22;10066;48.108;11.448;2023-06-01T07:40:11;20.00;90.50
19813;DHT22;10066;48.108;11.448;2023-06-01T07:42:38;20.00;90.70
19813;DHT22;10066;48.108;11.448;2023-06-01T07:45:08;20.00;91.30
19813;DHT22;10066;48.108;11.448;2023-06-01T07:47:36;20.10;91.20
19813;DHT22;10066;48.108;11.448;2023-06-01T07:50:04;20.10;90.90
19813;DHT22;10066;48.108;11.448;2023-06-01T07:52:31;20.10;90.50
19813;DHT22;10066;48.108;11.448;2023-06-01T07:54:58;20.10;91.10
19813;DHT22;10066;48.108;11.448;2023-06-01T07:57:26;20.10;90.70
19813;DHT22;10066;48.108;11.448;2023-06-01T07:59:53;20.10;90.80
19813;DHT22;10066;48.108;11.448;2023-06-01T08:02:22;20.10;90.80
19813;DHT22;10066;48.108;11.448;2023-06-01T08:04:49;20.20;91.00
19813;DHT22;10066;48.108;11.448;2023-06-01T08:07:16;20.30;91.50
19813;DHT22;10066;48.108;11.448;2023-06-01T08:09:44;20.30;91.20
19813;DHT22;10066;48.108;11.448;2023-06-01T08:12:13;20.40;90.90
19813;DHT22;10066;48.108;11.448;2023-06-01T08:14:40;20.50;91.20
19813;DHT22;10066;48.108;11.448;2023-06-01T08:17:10;20.60;90.80
19813;DHT22;10066;48.108;11.448;2023-06-01T08:19:40;20.70;91.20
19813;DHT22;10066;48.108;11.448;2023-06-01T08:22:07;20.80;90.70
19813;DHT22;10066;48.108;11.448;2023-06-01T08:24:34;20.90;90.20
19813;DHT22;10066;48.108;11.448;2023-06-01T08:27:02;20.90;90.20
19813;DHT22;10066;48.108;11.448;2023-06-01T08:29:41;21.00;90.10
19813;DHT22;10066;48.108;11.448;2023-06-01T08:32:09;21.00;90.10
19813;DHT22;10066;48.108;11.448;2023-06-01T08:34:36;21.10;90.30
19813;DHT22;10066;48.108;11.448;2023-06-01T08:37:04;21.20;90.20
19813;DHT22;10066;48.108;11.448;2023-06-01T08:39:31;21.30;89.60
19813;DHT22;10066;48.108;11.448;2023-06-01T08:42:07;21.30;90.00
19813;DHT22;10066;48.108;11.448;2023-06-01T08:44:37;21.40;89.90
19813;DHT22;10066;48.108;11.448;2023-06-01T08:47:05;21.50;90.10
19813;DHT22;10066;48.108;11.448;2023-06-01T08:49:33;21.60;89.10
19813;DHT22;10066;48.108;11.448;2023-06-01T08:52:04;21.60;88.30
19813;DHT22;10066;48.108;11.448;2023-06-01T08:54:33;21.60;88.40
19813;DHT22;10066;48.108;11.448;2023-06-01T08:57:03;21.60;88.80
19813;DHT22;10066;48.108;11.448;2023-06-01T08:59:31;21.70;88.20
19813;DHT22;10066;48.108;11.448;2023-06-01T09:02:00;21.70;88.40
19813;DHT22;10066;48.108;11.448;2023-06-01T09:04:28;21.80;89.00
19813;DHT22;10066;48.108;11.448;2023-06-01T09:06:56;21.90;88.60
19813;DHT22;10066;48.108;11.448;2023-06-01T09:09:24;22.00;88.60
19813;DHT22;10066;48.108;11.448;2023-06-01T09:12:15;21.90;87.70
19813;DHT22;10066;48.108;11.448;2023-06-01T09:14:42;21.90;87.20
19813;DHT22;10066;48.108;11.448;2023-06-01T09:17:12;21.90;88.30
19813;DHT22;10066;48.108;11.448;2023-06-01T09:19:43;21.90;87.20
19813;DHT22;10066;48.108;11.448;2023-06-01T09:22:10;22.00;87.60
19813;DHT22;10066;48.108;11.448;2023-06-01T09:24:39;22.00;88.90
19813;DHT22;10066;48.108;11.448;2023-06-01T09:27:07;22.10;88.30
19813;DHT22;10066;48.108;11.448;2023-06-01T09:29:34;22.20;87.50
19813;DHT22;10066;48.108;11.448;2023-06-01T09:32:01;22.40;87.90
19813;DHT22;10066;48.108;11.448;2023-06-01T09:34:28;22.50;87.40
19813;DHT22;10066;48.108;11.448;2023-06-01T09:36:56;22.50;85.40
19813;DHT22;10066;48.108;11.448;2023-06-01T09:39:24;22.60;86.30
19813;DHT22;10066;48.108;11.448;2023-06-01T09:41:54;22.60;84.50
19813;DHT22;10066;48.108;11.448;2023-06-01T09:44:25;22.70;84.50
19813;DHT22;10066;48.108;11.448;2023-06-01T09:46:54;22.70;85.10
19813;DHT22;10066;48.108;11.448;2023-06-01T09:49:22;22.90;84.30
19813;DHT22;10066;48.108;11.448;2023-06-01T09:51:51;23.00;85.00
19813;DHT22;10066;48.108;11.448;2023-06-01T09:54:28;23.10;84.40
19813;DHT22;10066;48.108;11.448;2023-06-01T09:56:59;23.20;83.80
19813;DHT22;10066;48.108;11.448;2023-06-01T09:59:28;23.30;82.90
19813;DHT22;10066;48.108;11.448;2023-06-01T10:01:57;23.30;84.40
19813;DHT22;10066;48.108;11.448;2023-06-01T10:04:25;23.40;82.60
19813;DHT22;10066;48.108;11.448;2023-06-01T10:06:54;23.40;81.30
19813;DHT22;10066;48.108;11.448;2023-06-01T10:09:22;23.40;81.80
19813;DHT22;10066;48.108;11.448;2023-06-01T10:11:51;23.50;81.40
19813;DHT22;10066;48.108;11.448;2023-06-01T10:14:22;23.60;81.50
19813;DHT22;10066;48.108;11.448;2023-06-01T10:16:50;23.60;79.50
19813;DHT22;10066;48.108;11.448;2023-06-01T10:19:18;23.60;79.40
19813;DHT22;10066;48.108;11.448;2023-06-01T10:21:45;23.60;80.00
19813;DHT22;10066;48.108;11.448;2023-06-01T10:24:13;23.70;80.00
19813;DHT22;10066;48.108;11.448;2023-06-01T10:26:45;23.80;79.80
19813;DHT22;10066;48.108;11.448;2023-06-01T10:29:17;23.90;80.30
19813;DHT22;10066;48.108;11.448;2023-06-01T10:31:46;24.00;79.10
19813;DHT22;10066;48.108;11.448;2023-06-01T10:34:13;24.10;77.70
19813;DHT22;10066;48.108;11.448;2023-06-01T10:37:15;24.10;77.00
19813;DHT22;10066;48.108;11.448;2023-06-01T10:39:42;24.10;75.60
19813;DHT22;10066;48.108;11.448;2023-06-01T10:42:37;24.10;75.50
19813;DHT22;10066;48.108;11.448;2023-06-01T10:45:07;24.10;75.10
19813;DHT22;10066;48.108;11.448;2023-06-01T10:47:46;24.10;76.30
19813;DHT22;10066;48.108;11.448;2023-06-01T10:50:19;24.10;74.60
19813;DHT22;10066;48.108;11.448;2023-06-01T10:52:47;24.20;74.00
19813;DHT22;10066;48.108;11.448;2023-06-01T10:55:24;24.10;73.70
19813;DHT22;10066;48.108;11.448;2023-06-01T10:58:21;24.10;73.40
19813;DHT22;10066;48.108;11.448;2023-06-01T11:00:53;24.20;73.90
19813;DHT22;10066;48.108;11.448;2023-06-01T11:03:44;24.10;73.00
19813;DHT22;10066;48.108;11.448;2023-06-01T11:06:25;24.10;71.70
19813;DHT22;10066;48.108;11.448;2023-06-01T11:08:54;24.00;72.10
19813;DHT22;10066;48.108;11.448;2023-06-01T11:11:22;24.10;73.10
19813;DHT22;10066;48.108;11.448;2023-06-01T11:14:10;24.10;72.60
19813;DHT22;10066;48.108;11.448;2023-06-01T11:16:37;24.30;72.30
19813;DHT22;10066;48.108;11.448;2023-06-01T11:19:07;24.30;71.30
19813;DHT22;10066;48.108;11.448;2023-06-01T11:21:38;24.20;71.00
19813;DHT22;10066;48.108;11.448;2023-06-01T11:24:10;24.30;72.90
19813;DHT22;10066;48.108;11.448;2023-06-01T11:26:40;24.40;71.10
19813;DHT22;10066;48.108;11.448;2023-06-01T11:29:09;24.40;70.30
19813;DHT22;10066;48.108;11.448;2023-06-01T11:31:38;24.50;70.50
19813;DHT22;10066;48.108;11.448;2023-06-01T11:34:08;24.40;70.20
19813;DHT22;10066;48.108;11.448;2023-06-01T11:36:41;24.60;71.50
19813;DHT22;10066;48.108;11.448;2023-06-01T11:39:18;24.60;70.60
19813;DHT22;10066;48.108;11.448;2023-06-01T11:41:48;24.60;69.30
19813;DHT22;10066;48.108;11.448;2023-06-01T11:44:15;24.60;69.10
19813;DHT22;10066;48.108;11.448;2023-06-01T11:46:52;24.50;69.30
19813;DHT22;10066;48.108;11.448;2023-06-01T11:49:22;24.50;69.40
19813;DHT22;10066;48.108;11.448;2023-06-01T11:51:49;24.60;69.90
19813;DHT22;10066;48.108;11.448;2023-06-01T11:54:22;24.60;68.80
19813;DHT22;10066;48.108;11.448;2023-06-01T11:56:49;24.50;68.00
19813;DHT22;10066;48.108;11.448;2023-06-01T11:59:17;24.50;69.00
19813;DHT22;10066;48.108;11.448;2023-06-01T12:01:46;24.60;69.40
19813;DHT22;10066;48.108;11.448;2023-06-01T12:04:13;24.60;68.20
19813;DHT22;10066;48.108;11.448;2023-06-01T12:06:42;24.60;68.40
19813;DHT22;10066;48.108;11.448;2023-06-01T12:09:10;24.60;69.20
19813;DHT22;10066;48.108;11.448;2023-06-01T12:11:38;24.60;68.00
19813;DHT22;10066;48.108;11.448;2023-06-01T12:14:06;24.60;67.40
19813;DHT22;10066;48.108;11.448;2023-06-01T12:16:52;24.60;68.10
19813;DHT22;10066;48.108;11.448;2023-06-01T12:19:21;24.70;67.30
19813;DHT22;10066;48.108;11.448;2023-06-01T12:21:50;24.70;67.20
19813;DHT22;10066;48.108;11.448;2023-06-01T12:24:17;24.70;66.60
19813;DHT22;10066;48.108;11.448;2023-06-01T12:26:45;24.80;67.60
19813;DHT22;10066;48.108;11.448;2023-06-01T12:29:12;24.90;68.10
19813;DHT22;10066;48.108;11.448;2023-06-01T12:31:39;25.00;67.70
19813;DHT22;10066;48.108;11.448;2023-06-01T12:34:17;25.10;66.60
19813;DHT22;10066;48.108;11.448;2023-06-01T12:36:44;25.30;66.30
19813;DHT22;10066;48.108;11.448;2023-06-01T12:39:13;25.40;66.00
19813;DHT22;10066;48.108;11.448;2023-06-01T12:41:49;25.40;65.10
19813;DHT22;10066;48.108;11.448;2023-06-01T12:44:20;25.40;64.80
19813;DHT22;10066;48.108;11.448;2023-06-01T12:46:48;25.40;65.00
19813;DHT22;10066;48.108;11.448;2023-06-01T12:49:22;25.40;64.60
19813;DHT22;10066;48.108;11.448;2023-06-01T12:51:49;25.40;65.60
19813;DHT22;10066;48.108;11.448;2023-06-01T12:54:18;25.40;66.10
19813;DHT22;10066;48.108;11.448;2023-06-01T12:56:47;25.50;65.50
19813;DHT22;10066;48.108;11.448;2023-06-01T12:59:14;25.40;64.90
19813;DHT22;10066;48.108;11.448;2023-06-01T13:01:42;25.30;64.20
19813;DHT22;10066;48.108;11.448;2023-06-01T13:04:09;25.30;64.50
19813;DHT22;10066;48.108;11.448;2023-06-01T13:06:36;25.20;64.90
19813;DHT22;10066;48.108;11.448;2023-06-01T13:09:05;25.10;64.60
19813;DHT22;10066;48.108;11.448;2023-06-01T13:11:35;25.10;64.00
19813;DHT22;10066;48.108;11.448;2023-06-01T13:14:02;25.20;64.80
19813;DHT22;10066;48.108;11.448;2023-06-01T13:16:29;25.20;65.10
19813;DHT22;10066;48.108;11.448;2023-06-01T13:18:56;25.20;64.70
19813;DHT22;10066;48.108;11.448;2023-06-01T13:21:24;25.30;63.50
19813;DHT22;10066;48.108;11.448;2023-06-01T13:23:50;25.40;63.70
19813;DHT22;10066;48.108;11.448;2023-06-01T13:26:18;25.40;63.50
19813;DHT22;10066;48.108;11.448;2023-06-01T13:28:49;25.50;64.40
19813;DHT22;10066;48.108;11.448;2023-06-01T13:31:16;25.50;64.40
19813;DHT22;10066;48.108;11.448;2023-06-01T13:33:42;25.40;63.90
19813;DHT22;10066;48.108;11.448;2023-06-01T13:36:09;25.30;63.10
19813;DHT22;10066;48.108;11.448;2023-06-01T13:38:36;25.20;63.10
19813;DHT22;10066;48.108;11.448;2023-06-01T13:41:03;25.20;63.80
19813;DHT22;10066;48.108;11.448;2023-06-01T13:43:30;25.10;64.10
19813;DHT22;10066;48.108;11.448;2023-06-01T13:45:59;24.90;63.70
19813;DHT22;10066;48.108;11.448;2023-06-01T13:48:25;24.90;64.30
19813;DHT22;10066;48.108;11.448;2023-06-01T13:50:52;25.00;65.00
19813;DHT22;10066;48.108;11.448;2023-06-01T13:53:19;25.10;64.70
19813;DHT22;10066;48.108;11.448;2023-06-01T13:55:46;25.20;64.60
19813;DHT22;10066;48.108;11.448;2023-06-01T13:58:13;25.30;64.70
19813;DHT22;10066;48.108;11.448;2023-06-01T14:00:40;25.20;63.50
19813;DHT22;10066;48.108;11.448;2023-06-01T14:03:08;25.20;64.50
19813;DHT22;10066;48.108;11.448;2023-06-01T14:05:35;25.30;64.60
19813;DHT22;10066;48.108;11.448;2023-06-01T14:08:02;25.30;64.00
19813;DHT22;10066;48.108;11.448;2023-06-01T14:10:31;25.40;65.10
19813;DHT22;10066;48.108;11.448;2023-06-01T14:12:59;25.40;63.50
19813;DHT22;10066;48.108;11.448;2023-06-01T14:15:27;25.40;62.80
19813;DHT22;10066;48.108;11.448;2023-06-01T14:18:00;25.30;62.30
19813;DHT22;10066;48.108;11.448;2023-06-01T14:20:28;25.30;63.40
19813;DHT22;10066;48.108;11.448;2023-06-01T14:22:56;25.30;63.20
19813;DHT22;10066;48.108;11.448;2023-06-01T14:25:23;25.30;64.10
19813;DHT22;10066;48.108;11.448;2023-06-01T14:27:49;25.10;62.70
19813;DHT22;10066;48.108;11.448;2023-06-01T14:30:16;25.10;63.80
19813;DHT22;10066;48.108;11.448;2023-06-01T14:32:43;25.00;63.90
19813;DHT22;10066;48.108;11.448;2023-06-01T14:35:10;25.10;64.80
19813;DHT22;10066;48.108;11.448;2023-06-01T14:37:42;25.10;63.40
19813;DHT22;10066;48.108;11.448;2023-06-01T14:40:10;25.10;63.30
19813;DHT22;10066;48.108;11.448;2023-06-01T14:42:37;25.00;62.70
19813;DHT22;10066;48.108;11.448;2023-06-01T14:45:06;24.90;63.30
19813;DHT22;10066;48.108;11.448;2023-06-01T14:47:33;24.90;64.00
19813;DHT22;10066;48.108;11.448;2023-06-01T14:49:59;24.90;64.70
19813;DHT22;10066;48.108;11.448;2023-06-01T14:52:26;25.00;64.70
19813;DHT22;10066;48.108;11.448;2023-06-01T14:54:55;25.10;65.00
19813;DHT22;10066;48.108;11.448;2023-06-01T14:57:21;25.20;64.90
19813;DHT22;10066;48.108;11.448;2023-06-01T14:59:48;25.10;63.80
19813;DHT22;10066;48.108;11.448;2023-06-01T15:02:15;25.10;63.40
19813;DHT22;10066;48.108;11.448;2023-06-01T15:04:43;25.00;63.30
19813;DHT22;10066;48.108;11.448;2023-06-01T15:07:11;25.00;63.10
19813;DHT22;10066;48.108;11.448;2023-06-01T15:09:37;24.90;62.70
19813;DHT22;10066;48.108;11.448;2023-06-01T15:12:07;24.90;62.90
19813;DHT22;10066;48.108;11.448;2023-06-01T15:14:34;24.80;61.90
19813;DHT22;10066;48.108;11.448;2023-06-01T15:17:01;24.80;62.00
19813;DHT22;10066;48.108;11.448;2023-06-01T15:19:28;24.70;61.70
19813;DHT22;10066;48.108;11.448;2023-06-01T15:21:55;24.70;62.40
19813;DHT22;10066;48.108;11.448;2023-06-01T15:24:22;24.80;63.00
19813;DHT22;10066;48.108;11.448;2023-06-01T15:26:49;24.80;62.60
19813;DHT22;10066;48.108;11.448;2023-06-01T15:29:17;24.80;62.40
19813;DHT22;10066;48.108;11.448;2023-06-01T15:31:44;24.80;62.70
19813;DHT22;10066;48.108;11.448;2023-06-01T15:34:11;24.80;62.50